sensor_id;sensor_type;location;lat;lon;timestamp;temperature;humidity
67817;DHT22;54614;47.576;7.524;2023-02-15T00:01:51;22.70;47.70
67817;DHT22;54614;47.576;7.524;2023-02-15T00:04:20;22.60;47.70
67817;DHT22;54614;47.576;7.524;2023-02-15T00:06:48;22.70;47.70
67817;DHT22;54614;47.576;7.524;2023-02-15T00:09:14;22.60;47.60
67817;DHT22;54614;47.576;7.524;2023-02-15T00:11:41;22.60;47.70
67817;DHT22;54614;47.576;7.524;2023-02-15T00:14:20;22.60;47.70
67817;DHT22;54614;47.576;7.524;2023-02-15T00:16:51;22.60;47.60
67817;DHT22;54614;47.576;7.524;2023-02-15T00:19:19;22.60;47.70
67817;DHT22;54614;47.576;7.524;2023-02-15T00:21:47;22.60;47.70
67817;DHT22;54614;47.576;7.524;2023-02-15T00:24:16;22.60;47.70
67817;DHT22;54614;47.576;7.524;2023-02-15T00:26:43;22.60;47.70
67817;DHT22;54614;47.576;7.524;2023-02-15T00:29:10;22.60;47.70
67817;DHT22;54614;47.576;7.524;2023-02-15T00:31:37;22.60;47.70
67817;DHT22;54614;47.576;7.524;2023-02-15T00:36:44;22.60;47.70
67817;DHT22;54614;47.576;7.524;2023-02-15T00:39:11;22.60;47.60
67817;DHT22;54614;47.576;7.524;2023-02-15T00:41:37;22.60;47.70
67817;DHT22;54614;47.576;7.524;2023-02-15T00:44:04;22.60;47.70
67817;DHT22;54614;47.576;7.524;2023-02-15T00:46:30;22.60;47.70
67817;DHT22;54614;47.576;7.524;2023-02-15T00:48:56;22.60;47.70
67817;DHT22;54614;47.576;7.524;2023-02-15T00:51:23;22.50;47.70
67817;DHT22;54614;47.576;7.524;2023-02-15T00:53:50;22.50;47.70
67817;DHT22;54614;47.576;7.524;2023-02-15T00:56:16;22.50;47.70
67817;DHT22;54614;47.576;7.524;2023-02-15T00:58:42;22.50;47.70
67817;DHT22;54614;47.576;7.524;2023-02-15T01:01:10;22.50;47.70
67817;DHT22;54614;47.576;7.524;2023-02-15T01:03:41;22.50;47.70
67817;DHT22;54614;47.576;7.524;2023-02-15T01:06:07;22.50;47.70
67817;DHT22;54614;47.576;7.524;2023-02-15T01:08:33;22.50;47.70
67817;DHT22;54614;47.576;7.524;2023-02-15T01:11:08;22.50;47.70
67817;DHT22;54614;47.576;7.524;2023-02-15T01:13:39;22.50;47.70
67817;DHT22;54614;47.576;7.524;2023-02-15T01:16:05;22.50;47.70
67817;DHT22;54614;47.576;7.524;2023-02-15T01:18:31;22.50;47.70
67817;DHT22;54614;47.576;7.524;2023-02-15T01:20:58;22.50;47.70
67817;DHT22;54614;47.576;7.524;2023-02-15T01:23:24;22.50;47.70
67817;DHT22;54614;47.576;7.524;2023-02-15T01:25:50;22.50;47.70
67817;DHT22;54614;47.576;7.524;2023-02-15T01:28:16;22.50;47.70
67817;DHT22;54614;47.576;7.524;2023-02-15T01:30:41;22.40;47.60
67817;DHT22;54614;47.576;7.524;2023-02-15T01:33:07;22.50;47.70
67817;DHT22;54614;47.576;7.524;2023-02-15T01:35:43;22.50;47.70
67817;DHT22;54614;47.576;7.524;2023-02-15T01:38:11;22.40;47.60
67817;DHT22;54614;47.576;7.524;2023-02-15T01:40:37;22.40;47.60
67817;DHT22;54614;47.576;7.524;2023-02-15T01:43:10;22.50;48.40
67817;DHT22;54614;47.576;7.524;2023-02-15T01:45:38;22.40;47.60
67817;DHT22;54614;47.576;7.524;2023-02-15T01:48:23;22.50;47.70
67817;DHT22;54614;47.576;7.524;2023-02-15T01:50:57;22.40;47.70
67817;DHT22;54614;47.576;7.524;2023-02-15T01:53:34;22.40;47.60
67817;DHT22;54614;47.576;7.524;2023-02-15T01:56:26;22.40;47.60
67817;DHT22;54614;47.576;7.524;2023-02-15T01:58:57;22.40;47.70
67817;DHT22;54614;47.576;7.524;2023-02-15T02:01:28;22.40;47.70
67817;DHT22;54614;47.576;7.524;2023-02-15T02:04:11;22.40;47.70
67817;DHT22;54614;47.576;7.524;2023-02-15T02:06:45;22.40;47.70
67817;DHT22;54614;47.576;7.524;2023-02-15T02:09:14;22.40;47.70
67817;DHT22;54614;47.576;7.524;2023-02-15T02:11:40;22.40;47.70
67817;DHT22;54614;47.576;7.524;2023-02-15T02:14:08;22.40;47.70
67817;DHT22;54614;47.576;7.524;2023-02-15T02:16:43;22.40;47.70
67817;DHT22;54614;47.576;7.524;2023-02-15T02:37:30;22.40;47.70
67817;DHT22;54614;47.576;7.524;2023-02-15T02:43:18;22.30;47.70
67817;DHT22;54614;47.576;7.524;2023-02-15T02:45:56;22.30;47.70
67817;DHT22;54614;47.576;7.524;2023-02-15T02:48:29;22.30;47.70
67817;DHT22;54614;47.576;7.524;2023-02-15T02:50:57;22.30;47.70
67817;DHT22;54614;47.576;7.524;2023-02-15T02:53:23;22.30;47.70
67817;DHT22;54614;47.576;7.524;2023-02-15T02:55:57;22.30;47.70
67817;DHT22;54614;47.576;7.524;2023-02-15T02:58:33;22.30;47.70
67817;DHT22;54614;47.576;7.524;2023-02-15T03:01:08;22.30;47.70
67817;DHT22;54614;47.576;7.524;2023-02-15T03:03:41;22.30;47.70
67817;DHT22;54614;47.576;7.524;2023-02-15T03:06:15;22.30;47.60
67817;DHT22;54614;47.576;7.524;2023-02-15T03:08:51;22.30;47.70
67817;DHT22;54614;47.576;7.524;2023-02-15T03:11:30;22.30;47.70
67817;DHT22;54614;47.576;7.524;2023-02-15T03:13:57;22.30;47.70
67817;DHT22;54614;47.576;7.524;2023-02-15T03:16:24;22.30;47.70
67817;DHT22;54614;47.576;7.524;2023-02-15T03:19:00;22.30;47.70
67817;DHT22;54614;47.576;7.524;2023-02-15T03:21:34;22.30;47.60
67817;DHT22;54614;47.576;7.524;2023-02-15T03:24:21;22.30;47.60
67817;DHT22;54614;47.576;7.524;2023-02-15T03:26:52;22.30;47.70
67817;DHT22;54614;47.576;7.524;2023-02-15T03:29:22;22.20;47.60
67817;DHT22;54614;47.576;7.524;2023-02-15T03:31:59;22.30;47.60
67817;DHT22;54614;47.576;7.524;2023-02-15T03:34:28;22.20;47.60
67817;DHT22;54614;47.576;7.524;2023-02-15T03:37:00;22.20;47.60
67817;DHT22;54614;47.576;7.524;2023-02-15T03:46:12;22.20;47.60
67817;DHT22;54614;47.576;7.524;2023-02-15T03:49:16;22.20;47.70
67817;DHT22;54614;47.576;7.524;2023-02-15T03:51:48;22.20;47.70
67817;DHT22;54614;47.576;7.524;2023-02-15T03:54:21;22.20;47.60
67817;DHT22;54614;47.576;7.524;2023-02-15T03:57:11;22.20;47.60
67817;DHT22;54614;47.576;7.524;2023-02-15T04:00:14;22.20;47.60
67817;DHT22;54614;47.576;7.524;2023-02-15T04:03:09;22.20;47.70
67817;DHT22;54614;47.576;7.524;2023-02-15T04:05:43;22.10;47.60
67817;DHT22;54614;47.576;7.524;2023-02-15T04:08:10;22.20;47.60
67817;DHT22;54614;47.576;7.524;2023-02-15T04:10:37;22.20;47.60
67817;DHT22;54614;47.576;7.524;2023-02-15T04:13:30;22.20;47.70
67817;DHT22;54614;47.576;7.524;2023-02-15T04:15:57;22.20;47.70
67817;DHT22;54614;47.576;7.524;2023-02-15T04:18:30;22.20;47.60
67817;DHT22;54614;47.576;7.524;2023-02-15T04:21:19;22.10;47.60
67817;DHT22;54614;47.576;7.524;2023-02-15T04:24:05;22.20;47.60
67817;DHT22;54614;47.576;7.524;2023-02-15T04:26:50;22.10;47.50
67817;DHT22;54614;47.576;7.524;2023-02-15T04:29:20;22.10;47.50
67817;DHT22;54614;47.576;7.524;2023-02-15T04:31:47;22.10;47.60
67817;DHT22;54614;47.576;7.524;2023-02-15T04:34:14;22.10;47.50
67817;DHT22;54614;47.576;7.524;2023-02-15T04:36:41;22.10;47.60
67817;DHT22;54614;47.576;7.524;2023-02-15T04:39:08;22.10;47.60
67817;DHT22;54614;47.576;7.524;2023-02-15T04:41:35;22.10;47.60
67817;DHT22;54614;47.576;7.524;2023-02-15T04:44:01;22.10;47.50
67817;DHT22;54614;47.576;7.524;2023-02-15T04:46:28;22.10;47.50
67817;DHT22;54614;47.576;7.524;2023-02-15T04:48:54;22.10;47.60
67817;DHT22;54614;47.576;7.524;2023-02-15T04:51:20;22.10;47.60
67817;DHT22;54614;47.576;7.524;2023-02-15T04:53:46;22.10;47.60
67817;DHT22;54614;47.576;7.524;2023-02-15T04:56:12;22.10;47.60
67817;DHT22;54614;47.576;7.524;2023-02-15T04:58:38;22.10;47.60
67817;DHT22;54614;47.576;7.524;2023-02-15T05:01:09;22.10;47.60
67817;DHT22;54614;47.576;7.524;2023-02-15T05:03:36;22.10;47.50
67817;DHT22;54614;47.576;7.524;2023-02-15T05:06:02;22.10;47.40
67817;DHT22;54614;47.576;7.524;2023-02-15T05:08:29;22.10;47.40
67817;DHT22;54614;47.576;7.524;2023-02-15T05:10:56;22.10;47.30
67817;DHT22;54614;47.576;7.524;2023-02-15T05:13:22;22.10;47.30
67817;DHT22;54614;47.576;7.524;2023-02-15T05:15:49;22.10;47.30
67817;DHT22;54614;47.576;7.524;2023-02-15T05:18:20;22.10;47.30
67817;DHT22;54614;47.576;7.524;2023-02-15T05:20:47;22.10;47.20
67817;DHT22;54614;47.576;7.524;2023-02-15T05:23:13;22.10;47.20
67817;DHT22;54614;47.576;7.524;2023-02-15T05:25:39;22.20;47.10
67817;DHT22;54614;47.576;7.524;2023-02-15T05:28:27;22.20;46.90
67817;DHT22;54614;47.576;7.524;2023-02-15T05:31:13;22.30;46.90
67817;DHT22;54614;47.576;7.524;2023-02-15T05:33:43;22.30;46.70
67817;DHT22;54614;47.576;7.524;2023-02-15T05:36:10;22.40;46.80
67817;DHT22;54614;47.576;7.524;2023-02-15T05:38:37;22.40;46.70
67817;DHT22;54614;47.576;7.524;2023-02-15T05:41:04;22.40;46.70
67817;DHT22;54614;47.576;7.524;2023-02-15T05:43:31;22.40;46.70
67817;DHT22;54614;47.576;7.524;2023-02-15T05:45:57;22.40;46.70
67817;DHT22;54614;47.576;7.524;2023-02-15T05:48:25;22.50;46.60
67817;DHT22;54614;47.576;7.524;2023-02-15T05:51:06;22.50;46.60
67817;DHT22;54614;47.576;7.524;2023-02-15T05:53:40;22.50;46.70
67817;DHT22;54614;47.576;7.524;2023-02-15T05:56:09;22.50;46.60
67817;DHT22;54614;47.576;7.524;2023-02-15T05:58:38;22.60;46.60
67817;DHT22;54614;47.576;7.524;2023-02-15T06:03:38;22.60;46.60
67817;DHT22;54614;47.576;7.524;2023-02-15T06:06:04;22.60;46.60
67817;DHT22;54614;47.576;7.524;2023-02-15T06:08:32;22.60;46.50
67817;DHT22;54614;47.576;7.524;2023-02-15T06:10:58;22.60;46.50
67817;DHT22;54614;47.576;7.524;2023-02-15T06:13:24;22.60;46.50
67817;DHT22;54614;47.576;7.524;2023-02-15T06:15:50;22.70;46.50
67817;DHT22;54614;47.576;7.524;2023-02-15T06:18:16;22.60;46.50
67817;DHT22;54614;47.576;7.524;2023-02-15T06:20:42;22.70;46.50
67817;DHT22;54614;47.576;7.524;2023-02-15T06:23:10;22.60;46.50
67817;DHT22;54614;47.576;7.524;2023-02-15T06:25:36;22.60;46.50
67817;DHT22;54614;47.576;7.524;2023-02-15T06:28:02;22.70;46.50
67817;DHT22;54614;47.576;7.524;2023-02-15T06:30:27;22.70;46.50
67817;DHT22;54614;47.576;7.524;2023-02-15T06:32:53;22.70;46.50
67817;DHT22;54614;47.576;7.524;2023-02-15T06:35:19;22.60;46.50
67817;DHT22;54614;47.576;7.524;2023-02-15T06:37:45;22.70;46.50
67817;DHT22;54614;47.576;7.524;2023-02-15T06:40:12;22.70;46.50
67817;DHT22;54614;47.576;7.524;2023-02-15T06:42:38;22.70;46.50
67817;DHT22;54614;47.576;7.524;2023-02-15T06:45:04;22.70;48.80
67817;DHT22;54614;47.576;7.524;2023-02-15T06:47:30;22.70;48.00
67817;DHT22;54614;47.576;7.524;2023-02-15T06:49:56;22.70;47.30
67817;DHT22;54614;47.576;7.524;2023-02-15T06:52:23;22.70;47.10
67817;DHT22;54614;47.576;7.524;2023-02-15T06:54:49;22.70;47.00
67817;DHT22;54614;47.576;7.524;2023-02-15T06:57:15;22.70;46.90
67817;DHT22;54614;47.576;7.524;2023-02-15T06:59:41;22.70;46.80
67817;DHT22;54614;47.576;7.524;2023-02-15T07:02:08;22.80;46.80
67817;DHT22;54614;47.576;7.524;2023-02-15T07:04:37;22.80;46.80
67817;DHT22;54614;47.576;7.524;2023-02-15T07:07:03;22.80;46.80
67817;DHT22;54614;47.576;7.524;2023-02-15T07:09:29;22.80;46.70
67817;DHT22;54614;47.576;7.524;2023-02-15T07:11:55;22.80;46.90
67817;DHT22;54614;47.576;7.524;2023-02-15T07:14:39;22.80;46.70
67817;DHT22;54614;47.576;7.524;2023-02-15T07:17:06;22.80;46.70
67817;DHT22;54614;47.576;7.524;2023-02-15T07:19:32;22.80;46.70
67817;DHT22;54614;47.576;7.524;2023-02-15T07:21:58;22.80;46.70
67817;DHT22;54614;47.576;7.524;2023-02-15T07:24:24;22.80;46.70
67817;DHT22;54614;47.576;7.524;2023-02-15T07:26:49;22.80;46.60
67817;DHT22;54614;47.576;7.524;2023-02-15T07:29:15;22.80;46.60
67817;DHT22;54614;47.576;7.524;2023-02-15T07:31:41;22.80;46.70
67817;DHT22;54614;47.576;7.524;2023-02-15T07:34:10;22.80;47.00
67817;DHT22;54614;47.576;7.524;2023-02-15T07:36:36;22.80;47.00
67817;DHT22;54614;47.576;7.524;2023-02-15T07:39:02;22.80;46.90
67817;DHT22;54614;47.576;7.524;2023-02-15T07:41:28;22.80;47.00
67817;DHT22;54614;47.576;7.524;2023-02-15T07:43:54;22.90;47.40
67817;DHT22;54614;47.576;7.524;2023-02-15T07:46:20;22.90;51.20
67817;DHT22;54614;47.576;7.524;2023-02-15T07:48:47;22.80;53.70
67817;DHT22;54614;47.576;7.524;2023-02-15T07:51:13;22.80;53.10
67817;DHT22;54614;47.576;7.524;2023-02-15T07:53:40;22.70;52.20
67817;DHT22;54614;47.576;7.524;2023-02-15T07:56:10;22.70;51.60
67817;DHT22;54614;47.576;7.524;2023-02-15T07:58:37;22.70;51.00
67817;DHT22;54614;47.576;7.524;2023-02-15T08:01:29;22.70;50.50
67817;DHT22;54614;47.576;7.524;2023-02-15T08:03:58;22.80;50.20
67817;DHT22;54614;47.576;7.524;2023-02-15T08:06:26;22.80;49.80
67817;DHT22;54614;47.576;7.524;2023-02-15T08:08:54;22.80;49.50
67817;DHT22;54614;47.576;7.524;2023-02-15T08:11:27;22.90;49.30
67817;DHT22;54614;47.576;7.524;2023-02-15T08:19:17;22.90;48.80
67817;DHT22;54614;47.576;7.524;2023-02-15T08:21:48;23.00;48.70
67817;DHT22;54614;47.576;7.524;2023-02-15T08:24:20;23.00;48.60
67817;DHT22;54614;47.576;7.524;2023-02-15T08:26:48;23.00;48.40
67817;DHT22;54614;47.576;7.524;2023-02-15T08:29:16;23.10;48.30
67817;DHT22;54614;47.576;7.524;2023-02-15T08:31:44;23.10;48.20
67817;DHT22;54614;47.576;7.524;2023-02-15T08:34:13;23.10;48.00
67817;DHT22;54614;47.576;7.524;2023-02-15T08:36:42;23.10;47.90
67817;DHT22;54614;47.576;7.524;2023-02-15T08:39:11;23.10;47.70
67817;DHT22;54614;47.576;7.524;2023-02-15T08:41:38;23.20;47.70
67817;DHT22;54614;47.576;7.524;2023-02-15T08:44:07;23.20;47.70
67817;DHT22;54614;47.576;7.524;2023-02-15T08:46:37;23.20;48.40
67817;DHT22;54614;47.576;7.524;2023-02-15T08:49:05;23.20;48.50
67817;DHT22;54614;47.576;7.524;2023-02-15T08:51:37;23.20;48.40
67817;DHT22;54614;47.576;7.524;2023-02-15T08:54:09;23.20;48.40
67817;DHT22;54614;47.576;7.524;2023-02-15T08:56:39;23.20;48.20
67817;DHT22;54614;47.576;7.524;2023-02-15T08:59:14;23.20;48.20
67817;DHT22;54614;47.576;7.524;2023-02-15T09:01:45;23.20;48.20
67817;DHT22;54614;47.576;7.524;2023-02-15T09:04:12;23.20;48.00
67817;DHT22;54614;47.576;7.524;2023-02-15T09:06:39;23.20;47.70
67817;DHT22;54614;47.576;7.524;2023-02-15T09:09:07;23.20;47.80
67817;DHT22;54614;47.576;7.524;2023-02-15T09:11:35;23.10;47.90
67817;DHT22;54614;47.576;7.524;2023-02-15T09:14:07;23.10;47.80
67817;DHT22;54614;47.576;7.524;2023-02-15T09:16:39;23.10;47.70
67817;DHT22;54614;47.576;7.524;2023-02-15T09:19:06;23.10;47.70
67817;DHT22;54614;47.576;7.524;2023-02-15T09:21:35;23.10;47.50
67817;DHT22;54614;47.576;7.524;2023-02-15T09:24:04;23.10;47.60
67817;DHT22;54614;47.576;7.524;2023-02-15T09:26:35;23.10;47.60
67817;DHT22;54614;47.576;7.524;2023-02-15T09:29:03;23.00;48.00
67817;DHT22;54614;47.576;7.524;2023-02-15T09:31:40;23.10;47.20
67817;DHT22;54614;47.576;7.524;2023-02-15T09:34:10;23.20;47.00
67817;DHT22;54614;47.576;7.524;2023-02-15T09:36:41;23.20;46.80
67817;DHT22;54614;47.576;7.524;2023-02-15T09:39:11;23.30;46.90
67817;DHT22;54614;47.576;7.524;2023-02-15T09:48:09;23.40;46.80
67817;DHT22;54614;47.576;7.524;2023-02-15T09:51:22;23.40;46.90
67817;DHT22;54614;47.576;7.524;2023-02-15T09:56:48;23.40;46.90
67817;DHT22;54614;47.576;7.524;2023-02-15T10:05:55;23.50;46.80
67817;DHT22;54614;47.576;7.524;2023-02-15T10:11:28;23.50;46.80
67817;DHT22;54614;47.576;7.524;2023-02-15T10:23:50;23.60;46.70
67817;DHT22;54614;47.576;7.524;2023-02-15T10:26:45;23.60;46.70
67817;DHT22;54614;47.576;7.524;2023-02-15T10:29:37;23.60;46.50
67817;DHT22;54614;47.576;7.524;2023-02-15T10:53:49;23.70;46.80
67817;DHT22;54614;47.576;7.524;2023-02-15T10:56:19;23.70;46.80
67817;DHT22;54614;47.576;7.524;2023-02-15T11:08:16;23.90;46.70
67817;DHT22;54614;47.576;7.524;2023-02-15T11:10:53;23.90;46.60
67817;DHT22;54614;47.576;7.524;2023-02-15T11:13:29;23.80;46.60
67817;DHT22;54614;47.576;7.524;2023-02-15T11:16:25;23.90;46.60
67817;DHT22;54614;47.576;7.524;2023-02-15T11:21:52;23.80;46.60
67817;DHT22;54614;47.576;7.524;2023-02-15T11:24:21;23.90;46.70
67817;DHT22;54614;47.576;7.524;2023-02-15T11:27:03;23.90;46.50
67817;DHT22;54614;47.576;7.524;2023-02-15T11:32:33;24.00;46.60
67817;DHT22;54614;47.576;7.524;2023-02-15T11:35:36;24.10;46.60
67817;DHT22;54614;47.576;7.524;2023-02-15T11:38:19;24.10;46.60
67817;DHT22;54614;47.576;7.524;2023-02-15T11:40:54;24.20;46.50
67817;DHT22;54614;47.576;7.524;2023-02-15T11:46:12;24.20;46.50
67817;DHT22;54614;47.576;7.524;2023-02-15T11:48:38;24.20;46.50
67817;DHT22;54614;47.576;7.524;2023-02-15T11:51:05;24.20;46.50
67817;DHT22;54614;47.576;7.524;2023-02-15T11:53:33;24.20;46.50
67817;DHT22;54614;47.576;7.524;2023-02-15T11:56:03;24.20;46.40
67817;DHT22;54614;47.576;7.524;2023-02-15T11:58:37;24.20;46.50
67817;DHT22;54614;47.576;7.524;2023-02-15T12:01:15;24.20;46.40
67817;DHT22;54614;47.576;7.524;2023-02-15T12:03:53;24.10;46.60
67817;DHT22;54614;47.576;7.524;2023-02-15T12:06:41;24.10;46.60
67817;DHT22;54614;47.576;7.524;2023-02-15T12:12:31;24.10;46.70
67817;DHT22;54614;47.576;7.524;2023-02-15T12:15:04;24.10;46.70
67817;DHT22;54614;47.576;7.524;2023-02-15T12:20:02;24.20;46.60
67817;DHT22;54614;47.576;7.524;2023-02-15T12:22:34;24.20;46.70
67817;DHT22;54614;47.576;7.524;2023-02-15T12:25:39;24.20;46.60
67817;DHT22;54614;47.576;7.524;2023-02-15T12:28:31;24.20;46.50
67817;DHT22;54614;47.576;7.524;2023-02-15T12:31:02;24.20;46.70
67817;DHT22;54614;47.576;7.524;2023-02-15T12:33:41;24.30;47.10
67817;DHT22;54614;47.576;7.524;2023-02-15T12:41:44;24.40;46.60
67817;DHT22;54614;47.576;7.524;2023-02-15T12:44:26;24.20;46.90
67817;DHT22;54614;47.576;7.524;2023-02-15T12:49:34;24.10;47.20
67817;DHT22;54614;47.576;7.524;2023-02-15T12:52:04;24.00;47.20
67817;DHT22;54614;47.576;7.524;2023-02-15T12:54:41;24.00;47.20
67817;DHT22;54614;47.576;7.524;2023-02-15T12:57:22;24.00;47.10
67817;DHT22;54614;47.576;7.524;2023-02-15T13:00:12;24.00;47.10
67817;DHT22;54614;47.576;7.524;2023-02-15T13:02:53;24.00;47.00
67817;DHT22;54614;47.576;7.524;2023-02-15T13:08:01;24.00;47.00
67817;DHT22;54614;47.576;7.524;2023-02-15T13:10:40;24.00;46.90
67817;DHT22;54614;47.576;7.524;2023-02-15T13:13:20;24.00;47.00
67817;DHT22;54614;47.576;7.524;2023-02-15T13:15:51;24.00;47.10
67817;DHT22;54614;47.576;7.524;2023-02-15T13:18:32;24.00;47.10
67817;DHT22;54614;47.576;7.524;2023-02-15T13:21:28;24.00;47.20
67817;DHT22;54614;47.576;7.524;2023-02-15T13:24:01;24.00;47.20
67817;DHT22;54614;47.576;7.524;2023-02-15T13:26:31;24.00;47.20
67817;DHT22;54614;47.576;7.524;2023-02-15T13:29:07;24.10;47.10
67817;DHT22;54614;47.576;7.524;2023-02-15T13:31:41;24.10;47.10
67817;DHT22;54614;47.576;7.524;2023-02-15T13:34:10;24.10;47.10
67817;DHT22;54614;47.576;7.524;2023-02-15T13:36:51;24.20;47.00
67817;DHT22;54614;47.576;7.524;2023-02-15T13:39:35;24.20;47.00
67817;DHT22;54614;47.576;7.524;2023-02-15T13:42:43;24.20;46.90
67817;DHT22;54614;47.576;7.524;2023-02-15T13:54:02;24.30;46.90
67817;DHT22;54614;47.576;7.524;2023-02-15T14:06:18;24.20;46.90
67817;DHT22;54614;47.576;7.524;2023-02-15T14:09:24;24.20;46.90
67817;DHT22;54614;47.576;7.524;2023-02-15T14:17:59;24.20;47.00
67817;DHT22;54614;47.576;7.524;2023-02-15T14:24:01;24.20;47.10
67817;DHT22;54614;47.576;7.524;2023-02-15T14:30:00;24.20;47.20
67817;DHT22;54614;47.576;7.524;2023-02-15T14:32:52;24.20;47.20
67817;DHT22;54614;47.576;7.524;2023-02-15T14:35:31;24.20;47.20
67817;DHT22;54614;47.576;7.524;2023-02-15T14:41:12;24.20;47.20
67817;DHT22;54614;47.576;7.524;2023-02-15T14:43:48;24.10;47.20
67817;DHT22;54614;47.576;7.524;2023-02-15T14:46:33;24.20;47.20
67817;DHT22;54614;47.576;7.524;2023-02-15T14:49:15;24.20;47.20
67817;DHT22;54614;47.576;7.524;2023-02-15T14:59:49;24.10;47.10
67817;DHT22;54614;47.576;7.524;2023-02-15T15:02:40;24.10;47.20
67817;DHT22;54614;47.576;7.524;2023-02-15T15:07:57;24.10;47.20
67817;DHT22;54614;47.576;7.524;2023-02-15T15:12:55;24.10;47.30
67817;DHT22;54614;47.576;7.524;2023-02-15T15:18:00;24.00;47.50
67817;DHT22;54614;47.576;7.524;2023-02-15T15:20:50;24.00;47.50
67817;DHT22;54614;47.576;7.524;2023-02-15T15:25:55;24.00;47.50
67817;DHT22;54614;47.576;7.524;2023-02-15T15:31:43;24.00;47.60
67817;DHT22;54614;47.576;7.524;2023-02-15T15:40:48;23.90;47.70
67817;DHT22;54614;47.576;7.524;2023-02-15T15:49:37;23.90;47.80
67817;DHT22;54614;47.576;7.524;2023-02-15T15:52:21;23.90;47.80
67817;DHT22;54614;47.576;7.524;2023-02-15T15:54:51;23.90;47.70
67817;DHT22;54614;47.576;7.524;2023-02-15T15:57:28;23.80;47.50
67817;DHT22;54614;47.576;7.524;2023-02-15T15:59:59;23.90;47.70
67817;DHT22;54614;47.576;7.524;2023-02-15T16:02:26;23.90;47.50
67817;DHT22;54614;47.576;7.524;2023-02-15T16:04:52;23.90;47.50
67817;DHT22;54614;47.576;7.524;2023-02-15T16:12:31;23.80;47.60
67817;DHT22;54614;47.576;7.524;2023-02-15T16:15:14;23.80;47.70
67817;DHT22;54614;47.576;7.524;2023-02-15T16:17:47;23.80;47.70
67817;DHT22;54614;47.576;7.524;2023-02-15T16:20:25;23.80;47.80
67817;DHT22;54614;47.576;7.524;2023-02-15T16:26:32;23.80;47.80
67817;DHT22;54614;47.576;7.524;2023-02-15T16:29:14;23.80;47.80
67817;DHT22;54614;47.576;7.524;2023-02-15T16:31:41;23.80;47.70
67817;DHT22;54614;47.576;7.524;2023-02-15T16:34:16;23.70;47.70
67817;DHT22;54614;47.576;7.524;2023-02-15T16:36:43;23.70;47.70
67817;DHT22;54614;47.576;7.524;2023-02-15T16:39:17;23.70;47.70
67817;DHT22;54614;47.576;7.524;2023-02-15T16:41:46;23.70;47.80
67817;DHT22;54614;47.576;7.524;2023-02-15T16:44:19;23.80;47.80
67817;DHT22;54614;47.576;7.524;2023-02-15T16:46:51;23.80;47.80
67817;DHT22;54614;47.576;7.524;2023-02-15T16:52:02;23.70;47.90
67817;DHT22;54614;47.576;7.524;2023-02-15T16:54:31;23.70;47.90
67817;DHT22;54614;47.576;7.524;2023-02-15T16:56:59;23.70;47.90
67817;DHT22;54614;47.576;7.524;2023-02-15T16:59:35;23.70;48.00
67817;DHT22;54614;47.576;7.524;2023-02-15T17:02:24;23.70;47.90
67817;DHT22;54614;47.576;7.524;2023-02-15T17:05:06;23.70;47.90
67817;DHT22;54614;47.576;7.524;2023-02-15T17:11:10;23.70;48.10
67817;DHT22;54614;47.576;7.524;2023-02-15T17:13:39;23.60;48.00
67817;DHT22;54614;47.576;7.524;2023-02-15T17:16:13;23.60;48.00
67817;DHT22;54614;47.576;7.524;2023-02-15T17:19:00;23.60;48.00
67817;DHT22;54614;47.576;7.524;2023-02-15T17:21:35;23.60;48.00
67817;DHT22;54614;47.576;7.524;2023-02-15T17:24:16;23.60;48.00
67817;DHT22;54614;47.576;7.524;2023-02-15T17:26:50;23.60;48.00
67817;DHT22;54614;47.576;7.524;2023-02-15T17:29:38;23.60;47.90
67817;DHT22;54614;47.576;7.524;2023-02-15T17:32:15;23.60;47.90
67817;DHT22;54614;47.576;7.524;2023-02-15T17:35:17;23.60;47.90
67817;DHT22;54614;47.576;7.524;2023-02-15T17:37:49;23.60;47.90
67817;DHT22;54614;47.576;7.524;2023-02-15T17:40:27;23.60;47.80
67817;DHT22;54614;47.576;7.524;2023-02-15T17:42:56;23.60;47.80
67817;DHT22;54614;47.576;7.524;2023-02-15T17:45:25;23.60;47.80
67817;DHT22;54614;47.576;7.524;2023-02-15T17:47:57;23.60;47.80
67817;DHT22;54614;47.576;7.524;2023-02-15T17:50:27;23.60;47.80
67817;DHT22;54614;47.576;7.524;2023-02-15T17:52:55;23.60;47.80
67817;DHT22;54614;47.576;7.524;2023-02-15T17:55:23;23.50;47.90
67817;DHT22;54614;47.576;7.524;2023-02-15T17:58:13;23.60;48.00
67817;DHT22;54614;47.576;7.524;2023-02-15T18:06:28;23.60;48.10
67817;DHT22;54614;47.576;7.524;2023-02-15T18:09:14;23.50;48.20
67817;DHT22;54614;47.576;7.524;2023-02-15T18:12:00;23.60;49.00
67817;DHT22;54614;47.576;7.524;2023-02-15T18:14:27;23.60;48.90
67817;DHT22;54614;47.576;7.524;2023-02-15T18:16:53;23.40;48.70
67817;DHT22;54614;47.576;7.524;2023-02-15T18:19:28;23.40;48.50
67817;DHT22;54614;47.576;7.524;2023-02-15T18:21:54;23.40;48.20
67817;DHT22;54614;47.576;7.524;2023-02-15T18:24:24;23.40;48.00
67817;DHT22;54614;47.576;7.524;2023-02-15T18:26:52;23.50;47.90
67817;DHT22;54614;47.576;7.524;2023-02-15T18:29:19;23.50;48.00
67817;DHT22;54614;47.576;7.524;2023-02-15T18:31:50;23.60;48.30
67817;DHT22;54614;47.576;7.524;2023-02-15T18:34:28;23.60;48.40
67817;DHT22;54614;47.576;7.524;2023-02-15T18:36:58;23.60;48.30
67817;DHT22;54614;47.576;7.524;2023-02-15T18:42:22;23.50;47.90
67817;DHT22;54614;47.576;7.524;2023-02-15T18:44:55;23.50;47.80
67817;DHT22;54614;47.576;7.524;2023-02-15T18:47:27;23.50;47.70
67817;DHT22;54614;47.576;7.524;2023-02-15T18:49:53;23.50;47.70
67817;DHT22;54614;47.576;7.524;2023-02-15T18:52:25;23.50;47.70
67817;DHT22;54614;47.576;7.524;2023-02-15T18:54:58;23.50;47.70
67817;DHT22;54614;47.576;7.524;2023-02-15T18:57:27;23.50;47.60
67817;DHT22;54614;47.576;7.524;2023-02-15T18:59:54;23.50;47.60
67817;DHT22;54614;47.576;7.524;2023-02-15T19:02:21;23.50;47.60
67817;DHT22;54614;47.576;7.524;2023-02-15T19:04:46;23.50;47.50
67817;DHT22;54614;47.576;7.524;2023-02-15T19:07:26;23.50;47.40
67817;DHT22;54614;47.576;7.524;2023-02-15T19:09:59;23.50;47.40
67817;DHT22;54614;47.576;7.524;2023-02-15T19:12:29;23.50;47.30
67817;DHT22;54614;47.576;7.524;2023-02-15T19:14:55;23.50;47.60
67817;DHT22;54614;47.576;7.524;2023-02-15T19:38:02;23.30;50.50
67817;DHT22;54614;47.576;7.524;2023-02-15T19:40:33;23.30;49.50
67817;DHT22;54614;47.576;7.524;2023-02-15T19:43:01;23.30;48.90
67817;DHT22;54614;47.576;7.524;2023-02-15T19:45:30;23.30;48.80
67817;DHT22;54614;47.576;7.524;2023-02-15T19:47:56;23.30;48.90
67817;DHT22;54614;47.576;7.524;2023-02-15T19:50:28;23.30;48.60
67817;DHT22;54614;47.576;7.524;2023-02-15T19:52:58;23.30;48.50
67817;DHT22;54614;47.576;7.524;2023-02-15T19:55:29;23.30;48.30
67817;DHT22;54614;47.576;7.524;2023-02-15T19:57:58;23.30;48.30
67817;DHT22;54614;47.576;7.524;2023-02-15T20:00:31;23.30;48.10